Time;durP1;ratioP1;P1;durP2;ratioP2;P2;SDS_P1;SDS_P2;PMS_P1;PMS_P2;Temp;Humidity;BMP_temperature;BMP_pressure;BME280_temperature;BME280_humidity;BME280_pressure;Samples;Min_cycle;Max_cycle;Signal;HPM_P1;HPM_P2
2022/10/30 00:01:54;;;;;;;6.63;3.30;;;10.70;99.90;;;;;;4990453;28;20030;-76
2022/10/30 00:04:19;;;;;;;5.60;2.65;;;10.80;99.90;;;;;;4993176;28;20019;-78
2022/10/30 00:06:45;;;;;;;12.20;4.38;;;10.60;99.90;;;;;;4994061;28;20490;-74
2022/10/30 00:09:11;;;;;;;4.93;2.90;;;10.50;99.90;;;;;;4994204;28;20030;-77
2022/10/30 00:11:36;;;;;;;5.05;2.25;;;10.60;99.90;;;;;;4994317;28;20565;-78
2022/10/30 00:14:02;;;;;;;5.68;3.33;;;10.70;99.90;;;;;;4994527;28;20105;-77
2022/10/30 00:16:28;;;;;;;6.97;2.85;;;10.70;99.90;;;;;;4993850;28;20495;-77
2022/10/30 00:18:54;;;;;;;3.42;2.25;;;10.60;99.90;;;;;;4994029;28;20046;-77
2022/10/30 00:21:19;;;;;;;5.95;2.85;;;10.60;99.90;;;;;;4993814;28;20029;-78
2022/10/30 00:23:49;;;;;;;3.63;2.83;;;10.70;99.90;;;;;;4993642;28;20058;-78
2022/10/30 00:26:15;;;;;;;3.55;2.65;;;10.90;99.90;;;;;;4993788;28;20113;-75
2022/10/30 00:28:41;;;;;;;11.18;3.22;;;10.80;99.90;;;;;;4993865;28;20035;-78
2022/10/30 00:31:07;;;;;;;3.47;2.65;;;10.70;99.90;;;;;;4993630;28;20029;-77
2022/10/30 00:33:33;;;;;;;4.90;2.80;;;10.60;99.90;;;;;;4993684;28;20124;-75
2022/10/30 00:35:59;;;;;;;5.57;2.38;;;10.50;99.90;;;;;;4993869;28;20062;-76
2022/10/30 00:38:25;;;;;;;6.63;2.30;;;10.30;99.90;;;;;;4993628;28;20026;-76
2022/10/30 00:40:51;;;;;;;8.40;3.67;;;10.20;99.90;;;;;;4993421;28;20033;-77
2022/10/30 00:43:32;;;;;;;5.18;2.83;;;10.20;99.90;;;;;;4993718;28;20023;-76
2022/10/30 00:46:23;;;;;;;6.65;2.55;;;10.50;99.90;;;;;;4993558;28;20019;-76
2022/10/30 00:48:59;;;;;;;12.98;3.78;;;10.70;99.90;;;;;;4993164;28;20128;-76
2022/10/30 00:51:27;;;;;;;2.20;2.03;;;10.70;99.90;;;;;;4993780;28;20022;-77
2022/10/30 00:53:57;;;;;;;4.82;2.10;;;10.70;99.90;;;;;;4993450;28;20029;-77
2022/10/30 00:56:23;;;;;;;;;;;10.60;99.90;;;;;;4993563;28;20018;-77
2022/10/30 00:58:56;;;;;;;10.25;2.30;;;10.40;99.90;;;;;;4993269;28;19917;-77
2022/10/30 01:01:26;;;;;;;9.15;3.05;;;10.30;99.90;;;;;;4992887;28;20030;-75
2022/10/30 01:03:55;;;;;;;9.60;4.80;;;10.30;99.90;;;;;;4993083;28;20029;-76
2022/10/30 01:06:22;;;;;;;3.65;1.98;;;10.20;99.90;;;;;;4993185;28;20026;-77
2022/10/30 01:08:49;;;;;;;7.28;2.15;;;10.20;99.90;;;;;;4993187;28;20054;-77
2022/10/30 01:11:14;;;;;;;6.53;2.85;;;10.20;99.90;;;;;;4992929;28;20018;-77
2022/10/30 01:13:43;;;;;;;4.57;2.40;;;10.30;99.90;;;;;;4991634;28;20391;-77
2022/10/30 01:16:50;;;;;;;12.50;3.03;;;10.30;99.90;;;;;;4991967;28;20091;-77
2022/10/30 01:19:30;;;;;;;7.47;2.40;;;10.20;99.90;;;;;;4992854;28;20115;-77
2022/10/30 01:22:11;;;;;;;;;;;10.30;99.90;;;;;;4993068;28;20046;-77
2022/10/30 01:24:54;;;;;;;2.95;2.22;;;10.40;99.90;;;;;;4995912;28;19960;-76
2022/10/30 01:27:38;;;;;;;2.05;1.85;;;10.50;99.90;;;;;;4992930;28;20030;-78
2022/10/30 01:30:28;;;;;;;17.98;2.90;;;10.40;99.90;;;;;;4992667;28;20030;-78
2022/10/30 01:33:08;;;;;;;6.00;2.55;;;10.40;99.90;;;;;;4992414;28;20253;-77
2022/10/30 01:35:53;;;;;;;5.07;2.78;;;10.40;99.90;;;;;;4991023;28;20173;-77
2022/10/30 01:38:25;;;;;;;7.85;3.70;;;10.50;99.90;;;;;;4992598;28;20038;-76
2022/10/30 01:40:51;;;;;;;4.95;2.40;;;10.50;99.90;;;;;;4992766;28;20026;-78
2022/10/30 01:43:16;;;;;;;3.20;1.88;;;10.50;99.90;;;;;;4992400;28;20026;-77
2022/10/30 01:45:51;;;;;;;6.43;3.22;;;10.40;99.90;;;;;;4992782;28;20022;-76
2022/10/30 01:48:35;;;;;;;2.67;2.47;;;10.40;99.90;;;;;;4992163;28;20030;-77
2022/10/30 01:51:27;;;;;;;5.95;1.95;;;10.30;99.90;;;;;;4992633;28;20026;-77
2022/10/30 01:54:03;;;;;;;3.33;2.63;;;10.20;99.90;;;;;;4992192;28;20057;-76
2022/10/30 01:56:57;;;;;;;10.32;2.25;;;10.00;99.90;;;;;;4992421;28;20022;-76
2022/10/30 01:59:31;;;;;;;2.90;2.05;;;9.90;99.90;;;;;;4992329;28;20052;-77
2022/10/30 02:01:57;;;;;;;4.07;2.17;;;9.80;99.90;;;;;;4991852;28;20064;-77
2022/10/30 02:04:23;;;;;;;8.68;3.63;;;9.80;99.90;;;;;;4991930;28;20105;-78
2022/10/30 02:06:50;;;;;;;3.88;1.63;;;9.70;99.90;;;;;;4992003;28;20117;-77
2022/10/30 02:09:16;;;;;;;7.15;3.00;;;10.00;99.90;;;;;;4992062;28;20479;-77
2022/10/30 02:11:44;;;;;;;4.03;2.83;;;9.90;99.90;;;;;;4991752;28;20550;-75
2022/10/30 02:14:12;;;;;;;6.90;2.10;;;7.90;99.90;;;;;;4991203;28;20026;-76
2022/10/30 02:16:44;;;;;;;2.53;2.22;;;10.10;99.90;;;;;;4991932;28;20037;-77
2022/10/30 02:19:10;;;;;;;8.05;1.90;;;10.00;99.90;;;;;;4992302;28;20022;-77
2022/10/30 02:21:36;;;;;;;2.92;1.70;;;9.90;99.90;;;;;;4991510;28;20106;-76
2022/10/30 02:24:01;;;;;;;6.80;3.03;;;9.80;99.90;;;;;;4991991;28;20070;-76
2022/10/30 02:26:27;;;;;;;4.40;2.92;;;9.80;99.90;;;;;;4991303;28;20113;-77
2022/10/30 02:28:53;;;;;;;4.03;2.10;;;9.80;99.90;;;;;;4991683;28;20033;-77
2022/10/30 02:31:18;;;;;;;2.92;2.10;;;9.80;99.90;;;;;;4991884;28;20177;-77
2022/10/30 02:33:48;;;;;;;6.85;2.20;;;9.80;99.90;;;;;;4991545;28;20061;-76
2022/10/30 02:36:16;;;;;;;;;;;9.70;99.90;;;;;;4991860;28;20069;-77
2022/10/30 02:38:43;;;;;;;6.93;2.15;;;9.60;99.90;;;;;;4991522;28;19949;-76
2022/10/30 02:41:09;;;;;;;2.20;1.60;;;9.60;99.90;;;;;;4991292;28;20514;-77
2022/10/30 02:43:35;;;;;;;3.53;2.10;;;9.50;99.90;;;;;;4991262;28;20490;-77
2022/10/30 02:46:01;;;;;;;3.30;2.05;;;9.40;99.90;;;;;;4994367;28;20120;-76
2022/10/30 02:48:31;;;;;;;4.88;2.65;;;9.40;99.90;;;;;;4990881;28;20416;-74
2022/10/30 02:51:01;;;;;;;4.53;3.45;;;9.50;99.90;;;;;;4991171;28;20025;-76
2022/10/30 02:53:27;;;;;;;3.88;1.98;;;9.60;99.90;;;;;;4991153;28;20487;-76
2022/10/30 02:55:53;;;;;;;8.10;2.85;;;9.70;99.90;;;;;;4990931;28;20026;-77
2022/10/30 02:58:19;;;;;;;2.85;1.67;;;9.70;99.90;;;;;;4990976;28;20026;-77
2022/10/30 03:00:45;;;;;;;7.70;2.63;;;9.80;99.90;;;;;;4990942;28;20535;-77
2022/10/30 03:03:10;;;;;;;3.85;2.05;;;9.70;99.90;;;;;;4990784;28;20026;-77
2022/10/30 03:05:39;;;;;;;4.32;2.45;;;9.50;99.90;;;;;;4990759;28;20018;-76
2022/10/30 03:08:05;;;;;;;2.63;2.30;;;9.40;99.90;;;;;;4990953;28;20080;-76
2022/10/30 03:10:31;;;;;;;3.80;1.77;;;9.40;99.90;;;;;;4991326;28;20109;-77
2022/10/30 03:12:57;;;;;;;3.33;2.05;;;9.30;99.90;;;;;;4990613;28;20030;-76
2022/10/30 03:15:23;;;;;;;12.95;2.03;;;9.20;99.90;;;;;;4989479;28;20104;-77
2022/10/30 03:17:51;;;;;;;4.85;1.88;;;9.20;99.90;;;;;;4990362;28;20542;-76
2022/10/30 03:20:17;;;;;;;4.50;2.83;;;9.30;99.90;;;;;;4990577;28;20026;-77
2022/10/30 03:22:43;;;;;;;6.15;3.15;;;9.40;99.90;;;;;;4990362;28;20053;-77
2022/10/30 03:25:09;;;;;;;6.15;2.97;;;9.50;99.90;;;;;;4990573;28;20026;-76
2022/10/30 03:27:35;;;;;;;8.95;2.28;;;9.50;99.90;;;;;;4990563;28;20033;-78
2022/10/30 03:30:00;;;;;;;3.47;2.25;;;9.50;99.90;;;;;;4990351;28;20427;-76
2022/10/30 03:32:26;;;;;;;15.65;3.75;;;9.40;99.90;;;;;;4989105;28;20062;-77
2022/10/30 03:34:52;;;;;;;2.30;2.10;;;9.30;99.90;;;;;;4988945;28;20655;-77
2022/10/30 03:37:17;;;;;;;4.38;2.67;;;9.20;99.90;;;;;;4988573;28;20538;-77
2022/10/30 03:39:43;;;;;;;7.00;2.15;;;9.20;99.90;;;;;;4988621;28;20042;-77
2022/10/30 03:42:08;;;;;;;6.07;2.28;;;9.10;99.90;;;;;;4988792;28;20491;-77
2022/10/30 03:44:34;;;;;;;13.00;2.50;;;9.00;99.90;;;;;;4988898;28;20109;-76
2022/10/30 03:47:00;;;;;;;3.78;1.70;;;9.00;99.90;;;;;;4989165;28;20060;-76
2022/10/30 03:49:26;;;;;;;3.03;2.47;;;9.00;99.90;;;;;;4990396;28;20383;-77
2022/10/30 03:51:52;;;;;;;4.65;3.20;;;9.00;99.90;;;;;;4990273;28;20034;-78
2022/10/30 03:54:17;;;;;;;5.07;2.33;;;9.00;99.90;;;;;;4989252;28;20033;-77
2022/10/30 03:56:44;;;;;;;1.60;1.50;;;8.90;99.90;;;;;;4989487;28;20034;-77
2022/10/30 03:59:10;;;;;;;3.88;2.50;;;8.80;99.90;;;;;;4989740;28;20022;-75
2022/10/30 04:01:37;;;;;;;11.88;3.08;;;8.90;99.90;;;;;;4990065;28;20026;-77
2022/10/30 04:04:02;;;;;;;8.13;2.17;;;9.00;99.90;;;;;;4990341;28;20089;-76
2022/10/30 04:06:28;;;;;;;2.17;1.77;;;9.00;99.90;;;;;;4990359;28;20430;-76
2022/10/30 04:08:54;;;;;;;7.95;1.88;;;8.90;99.90;;;;;;4990635;28;20471;-77
2022/10/30 04:11:20;;;;;;;4.28;2.63;;;8.90;99.90;;;;;;4990228;28;20030;-77
2022/10/30 04:13:46;;;;;;;3.08;2.25;;;8.90;99.90;;;;;;4989147;28;20521;-76
2022/10/30 04:16:11;;;;;;;4.13;2.55;;;8.90;99.90;;;;;;4989724;28;20049;-75
2022/10/30 04:18:37;;;;;;;4.97;2.65;;;8.80;99.90;;;;;;4990151;28;20503;-76
2022/10/30 04:21:03;;;;;;;3.15;1.67;;;8.80;99.90;;;;;;4988576;28;20026;-75
2022/10/30 04:23:29;;;;;;;6.93;1.60;;;8.70;99.90;;;;;;4989684;28;20531;-76
2022/10/30 04:25:55;;;;;;;4.97;2.78;;;8.70;99.90;;;;;;4988673;28;20108;-77
2022/10/30 04:28:21;;;;;;;7.45;3.15;;;8.90;99.90;;;;;;4990087;28;20077;-75
2022/10/30 04:30:46;;;;;;;5.88;3.90;;;9.00;99.90;;;;;;4988595;28;20026;-76
2022/10/30 04:33:13;;;;;;;1.75;1.65;;;9.20;99.90;;;;;;4989758;28;20061;-76
2022/10/30 04:35:40;;;;;;;3.58;2.22;;;11.40;99.90;;;;;;4989697;28;20027;-77
2022/10/30 04:38:09;;;;;;;2.63;2.22;;;9.10;99.90;;;;;;4989584;28;20042;-75
2022/10/30 04:40:39;;;;;;;7.03;3.05;;;8.90;99.90;;;;;;4989883;28;20026;-76
2022/10/30 04:43:07;;;;;;;4.90;2.15;;;8.70;99.90;;;;;;4990032;28;20030;-78
2022/10/30 04:45:33;;;;;;;2.58;2.38;;;8.60;99.90;;;;;;4988567;28;20049;-76
2022/10/30 04:48:04;;;;;;;13.05;2.83;;;8.70;99.90;;;;;;4990082;28;20339;-77
2022/10/30 04:50:31;;;;;;;9.73;2.92;;;8.70;99.90;;;;;;4991264;28;20084;-76
2022/10/30 04:52:59;;;;;;;2.28;1.45;;;8.60;99.90;;;;;;4993351;28;20077;-76
2022/10/30 04:55:24;;;;;;;1.50;1.35;;;8.70;99.90;;;;;;4993296;28;20076;-77
2022/10/30 04:57:55;;;;;;;6.93;1.73;;;8.70;99.90;;;;;;4993385;28;20462;-76
2022/10/30 05:00:21;;;;;;;3.63;2.40;;;8.70;99.90;;;;;;4993239;28;20072;-74
2022/10/30 05:02:47;;;;;;;3.30;2.20;;;8.80;99.90;;;;;;4992900;28;20027;-75
2022/10/30 05:05:12;;;;;;;1.50;1.30;;;8.70;99.90;;;;;;4984044;28;20069;-76
2022/10/30 05:07:38;;;;;;;5.47;2.30;;;8.70;99.90;;;;;;4983069;28;20086;-77
2022/10/30 05:10:04;;;;;;;16.50;3.40;;;8.60;99.90;;;;;;4983518;28;20027;-76
2022/10/30 05:12:30;;;;;;;4.35;1.90;;;8.60;99.90;;;;;;4982816;28;20034;-76
2022/10/30 05:14:55;;;;;;;8.65;2.83;;;8.60;99.90;;;;;;4983186;28;20029;-77
2022/10/30 05:17:21;;;;;;;5.22;2.40;;;8.60;99.90;;;;;;4982290;28;20026;-76
2022/10/30 05:19:47;;;;;;;5.47;2.45;;;8.60;99.90;;;;;;4983637;28;20026;-76
2022/10/30 05:22:13;;;;;;;8.20;2.65;;;8.60;99.90;;;;;;4992765;28;20124;-77
2022/10/30 05:24:39;;;;;;;7.82;1.90;;;8.60;99.90;;;;;;4992783;28;20033;-77
2022/10/30 05:27:05;;;;;;;2.95;2.13;;;8.60;99.90;;;;;;4992593;28;20030;-76
2022/10/30 05:29:30;;;;;;;5.35;1.98;;;8.50;99.90;;;;;;4992706;28;20028;-76
2022/10/30 05:31:56;;;;;;;4.70;1.67;;;8.50;99.90;;;;;;4992366;28;20109;-76
2022/10/30 05:34:22;;;;;;;2.88;1.35;;;8.50;99.90;;;;;;4992504;28;20026;-76
2022/10/30 05:36:47;;;;;;;3.40;1.55;;;8.50;99.90;;;;;;4992528;28;20479;-77
2022/10/30 05:39:13;;;;;;;9.00;2.30;;;8.40;99.90;;;;;;4992493;28;20085;-78
2022/10/30 05:41:39;;;;;;;2.05;1.65;;;8.30;99.90;;;;;;4992671;28;20143;-77
2022/10/30 05:44:05;;;;;;;1.55;1.42;;;8.20;99.90;;;;;;4992728;28;20058;-76
2022/10/30 05:46:30;;;;;;;3.92;1.77;;;8.20;99.90;;;;;;4992184;28;20022;-77
2022/10/30 05:48:56;;;;;;;4.40;1.73;;;8.10;99.90;;;;;;4992554;28;20081;-76
2022/10/30 05:51:21;;;;;;;3.05;2.20;;;8.20;99.90;;;;;;4992457;28;20443;-76
2022/10/30 05:53:48;;;;;;;5.55;2.30;;;8.20;99.90;;;;;;4991006;28;20034;-75
2022/10/30 05:56:14;;;;;;;3.63;1.98;;;8.20;99.90;;;;;;4992227;28;20384;-76
2022/10/30 05:58:39;;;;;;;4.72;2.20;;;8.10;99.90;;;;;;4992205;28;20471;-76
2022/10/30 06:01:06;;;;;;;3.83;2.85;;;8.10;99.90;;;;;;4991314;28;20101;-75
2022/10/30 06:03:32;;;;;;;4.72;2.45;;;8.10;99.90;;;;;;4990631;28;20036;-75
2022/10/30 06:05:58;;;;;;;4.07;1.88;;;8.20;99.90;;;;;;4992066;28;20113;-75
2022/10/30 06:08:23;;;;;;;6.28;1.90;;;8.30;99.90;;;;;;4991879;28;20408;-74
2022/10/30 06:10:49;;;;;;;4.15;1.45;;;8.30;99.90;;;;;;4991836;28;20037;-76
2022/10/30 06:13:15;;;;;;;3.38;2.50;;;8.20;99.90;;;;;;4991945;28;20030;-76
2022/10/30 06:15:40;;;;;;;6.05;2.05;;;8.20;99.90;;;;;;4991567;28;20026;-76
2022/10/30 06:18:06;;;;;;;8.82;2.10;;;8.30;99.90;;;;;;4991418;28;20133;-78
2022/10/30 06:20:32;;;;;;;1.98;1.77;;;8.40;99.90;;;;;;4991935;28;20153;-76
2022/10/30 06:22:59;;;;;;;4.40;2.03;;;8.50;99.90;;;;;;4991567;28;20078;-77
2022/10/30 06:25:26;;;;;;;4.95;2.83;;;8.50;99.90;;;;;;4991794;28;20026;-76
2022/10/30 06:27:52;;;;;;;5.00;2.95;;;8.60;99.90;;;;;;4991969;28;20022;-76
2022/10/30 06:30:18;;;;;;;5.18;1.92;;;8.60;99.90;;;;;;4991630;28;20396;-75
2022/10/30 06:32:47;;;;;;;4.70;2.15;;;8.60;99.90;;;;;;4991009;28;20034;-76
2022/10/30 06:35:16;;;;;;;9.90;2.13;;;8.50;99.90;;;;;;4988742;28;20428;-78
2022/10/30 06:37:55;;;;;;;2.33;1.88;;;8.50;99.90;;;;;;4980985;28;20113;-79
2022/10/30 06:40:23;;;;;;;8.43;2.10;;;8.50;99.90;;;;;;4981527;28;20014;-78
2022/10/30 06:42:50;;;;;;;2.58;2.47;;;8.80;99.90;;;;;;4982122;28;20384;-79
2022/10/30 06:45:17;;;;;;;8.00;3.03;;;8.80;99.90;;;;;;4984705;28;20017;-78
2022/10/30 06:47:43;;;;;;;3.50;1.80;;;8.90;99.90;;;;;;4984678;28;20015;-78
2022/10/30 06:50:12;;;;;;;4.57;2.25;;;9.00;99.90;;;;;;4988324;28;20514;-78
2022/10/30 06:52:38;;;;;;;2.63;2.05;;;8.90;99.90;;;;;;4984323;28;20049;-79
2022/10/30 06:55:04;;;;;;;4.90;1.70;;;9.00;99.90;;;;;;4985714;28;20030;-78
2022/10/30 06:57:30;;;;;;;2.05;1.88;;;9.00;99.90;;;;;;4982992;28;20553;-78
2022/10/30 06:59:56;;;;;;;2.40;1.85;;;9.00;99.90;;;;;;4993305;28;20034;-77
2022/10/30 07:02:22;;;;;;;3.58;2.33;;;9.10;99.90;;;;;;4994940;28;20530;-79
2022/10/30 07:04:48;;;;;;;3.22;1.90;;;9.10;99.90;;;;;;4993589;28;20022;-78
2022/10/30 07:07:14;;;;;;;7.03;1.90;;;9.30;99.90;;;;;;4994000;28;20068;-78
2022/10/30 07:09:40;;;;;;;3.15;1.95;;;;;;;;;;4992999;28;20503;-79
2022/10/30 07:12:07;;;;;;;3.53;1.77;;;9.40;99.90;;;;;;5002132;28;20330;-80
2022/10/30 07:14:33;;;;;;;2.65;1.70;;;;;;;;;;4997962;28;20066;-78
2022/10/30 07:16:59;;;;;;;10.48;2.35;;;9.50;99.90;;;;;;4983798;28;20038;-75
2022/10/30 07:19:24;;;;;;;4.68;1.70;;;9.70;99.90;;;;;;4988973;28;20088;-77
2022/10/30 07:21:50;;;;;;;6.35;2.70;;;9.80;99.90;;;;;;4989987;28;20442;-79
2022/10/30 07:24:16;;;;;;;8.77;1.80;;;10.10;99.90;;;;;;4987322;28;20026;-79
2022/10/30 07:26:41;;;;;;;11.13;3.45;;;10.10;99.90;;;;;;4984957;28;20046;-77
2022/10/30 07:29:08;;;;;;;3.03;2.10;;;;;;;;;;4985585;28;20038;-79
2022/10/30 07:31:33;;;;;;;6.55;2.55;;;10.40;99.90;;;;;;4984154;28;20027;-79
2022/10/30 07:33:59;;;;;;;3.55;2.90;;;10.60;99.90;;;;;;4983292;28;20028;-78
2022/10/30 07:36:25;;;;;;;6.47;3.55;;;10.70;99.90;;;;;;4981710;28;20027;-78
2022/10/30 07:38:51;;;;;;;6.50;1.95;;;10.90;99.90;;;;;;4982062;28;20034;-78
2022/10/30 07:41:18;;;;;;;8.20;3.17;;;11.90;99.90;;;;;;4981776;28;20034;-77
2022/10/30 07:43:44;;;;;;;8.18;3.38;;;11.10;99.90;;;;;;4981621;28;20337;-76
2022/10/30 07:46:10;;;;;;;2.22;1.50;;;11.20;99.90;;;;;;4989414;28;20022;-76
2022/10/30 07:48:35;;;;;;;2.63;2.15;;;11.30;99.90;;;;;;4998281;28;20305;-76
2022/10/30 07:51:01;;;;;;;7.50;3.20;;;11.40;99.90;;;;;;4981292;28;20274;-77
2022/10/30 07:53:27;;;;;;;5.00;2.35;;;11.40;99.90;;;;;;4982900;28;20027;-78
2022/10/30 07:55:53;;;;;;;10.10;2.53;;;11.50;99.90;;;;;;4977508;28;20023;-77
2022/10/30 07:58:18;;;;;;;4.45;1.58;;;11.60;99.90;;;;;;4994789;28;20326;-77
2022/10/30 08:00:44;;;;;;;4.93;2.85;;;11.70;99.90;;;;;;4989259;28;20334;-76
2022/10/30 08:03:11;;;;;;;3.83;1.73;;;11.80;99.90;;;;;;4993597;28;20040;-76
2022/10/30 08:05:36;;;;;;;17.08;2.67;;;12.00;99.90;;;;;;4998037;28;20057;-78
2022/10/30 08:08:02;;;;;;;2.75;2.00;;;12.10;99.90;;;;;;5001228;28;20034;-78
2022/10/30 08:10:28;;;;;;;4.20;2.10;;;12.30;99.90;;;;;;4985042;28;20027;-78
2022/10/30 08:12:54;;;;;;;3.38;2.53;;;12.40;99.90;;;;;;4982131;28;20334;-78
2022/10/30 08:15:22;;;;;;;4.57;2.78;;;12.50;99.90;;;;;;4979832;28;20243;-78
2022/10/30 08:17:49;;;;;;;4.00;3.47;;;12.50;99.90;;;;;;4979683;28;20384;-80
2022/10/30 08:20:17;;;;;;;4.03;2.10;;;12.70;99.90;;;;;;4979511;28;20090;-79
2022/10/30 08:22:49;;;;;;;5.03;2.60;;;12.90;99.90;;;;;;4979815;28;20055;-77
2022/10/30 08:25:17;;;;;;;4.97;2.90;;;13.10;99.90;;;;;;4980629;28;20331;-75
2022/10/30 08:28:06;;;;;;;4.43;2.75;;;13.20;99.90;;;;;;4982521;28;20026;-75
2022/10/30 08:30:34;;;;;;;4.85;2.63;;;13.30;99.90;;;;;;4972372;28;20426;-75
2022/10/30 08:33:05;;;;;;;11.50;2.47;;;13.50;99.90;;;;;;4986638;28;20116;-76
2022/10/30 08:35:31;;;;;;;2.92;2.70;;;13.70;99.90;;;;;;4983542;28;20031;-75
2022/10/30 08:37:59;;;;;;;8.45;3.05;;;13.80;99.90;;;;;;4985410;28;20062;-76
2022/10/30 08:40:26;;;;;;;11.18;3.40;;;13.90;99.90;;;;;;4985662;28;20030;-78
2022/10/30 08:42:53;;;;;;;4.65;2.58;;;14.00;99.90;;;;;;4990619;28;20098;-76
2022/10/30 08:45:19;;;;;;;5.13;3.13;;;14.10;99.90;;;;;;4986307;28;20022;-78
2022/10/30 08:47:45;;;;;;;6.88;3.17;;;14.20;99.90;;;;;;4970283;28;20106;-77
2022/10/30 08:50:11;;;;;;;2.63;1.90;;;14.20;99.90;;;;;;4971002;28;20499;-78
2022/10/30 08:52:37;;;;;;;14.35;2.25;;;14.40;99.90;;;;;;4971383;28;20030;-78
2022/10/30 08:55:03;;;;;;;2.10;2.00;;;14.50;99.90;;;;;;4968497;28;20042;-75
2022/10/30 08:57:34;;;;;;;2.53;1.80;;;14.60;99.90;;;;;;4973239;28;20038;-78
2022/10/30 08:59:59;;;;;;;16.73;3.72;;;14.70;99.90;;;;;;4971566;28;20468;-78
2022/10/30 09:02:25;;;;;;;12.73;3.10;;;14.90;99.90;;;;;;4970243;28;20045;-77
2022/10/30 09:04:50;;;;;;;4.55;2.08;;;15.00;99.90;;;;;;4969482;28;20033;-77
2022/10/30 09:07:16;;;;;;;5.50;1.92;;;15.10;99.90;;;;;;4970233;28;20496;-78
2022/10/30 09:09:42;;;;;;;7.60;2.75;;;15.10;99.90;;;;;;4970640;28;20522;-78
2022/10/30 09:12:07;;;;;;;6.93;3.95;;;15.10;99.90;;;;;;4970108;28;20034;-76
2022/10/30 09:14:33;;;;;;;14.40;3.28;;;15.10;99.90;;;;;;4970006;28;20042;-76
2022/10/30 09:16:59;;;;;;;4.07;2.58;;;15.20;99.90;;;;;;4985905;28;20390;-77
2022/10/30 09:19:27;;;;;;;6.07;1.95;;;15.30;99.90;;;;;;4988607;28;20042;-79
2022/10/30 09:21:53;;;;;;;9.02;1.70;;;15.30;99.90;;;;;;4995740;28;20403;-77
2022/10/30 09:24:19;;;;;;;2.90;2.47;;;15.40;99.90;;;;;;4998411;28;20438;-78
2022/10/30 09:26:44;;;;;;;3.60;2.28;;;15.40;99.90;;;;;;4996969;28;20407;-78
2022/10/30 09:29:10;;;;;;;4.68;1.90;;;15.40;99.90;;;;;;4989356;28;20195;-80
2022/10/30 09:31:36;;;;;;;2.90;2.22;;;15.40;99.90;;;;;;4988010;28;20121;-77
2022/10/30 09:34:01;;;;;;;8.77;2.47;;;15.50;99.90;;;;;;4989220;28;20026;-76
2022/10/30 09:36:27;;;;;;;3.83;1.75;;;15.60;99.90;;;;;;4988251;28;20034;-78
2022/10/30 09:38:54;;;;;;;1.48;1.40;;;15.70;99.90;;;;;;4989806;28;20046;-76
2022/10/30 09:41:59;;;;;;;6.10;2.45;;;16.00;99.90;;;;;;4990646;28;20407;-74
2022/10/30 09:44:49;;;;;;;5.65;1.30;;;16.10;99.90;;;;;;4990347;28;20026;-77
2022/10/30 09:47:14;;;;;;;2.35;1.85;;;16.30;99.90;;;;;;4971642;28;20030;-75
2022/10/30 09:49:40;;;;;;;6.85;1.63;;;16.40;99.90;;;;;;4972193;28;20031;-75
2022/10/30 09:52:56;;;;;;;5.97;2.25;;;16.40;99.90;;;;;;4969541;28;20023;-77
2022/10/30 09:55:33;;;;;;;4.10;1.50;;;16.60;99.90;;;;;;4928316;29;20421;-74
2022/10/30 09:58:11;;;;;;;3.15;1.70;;;16.70;99.90;;;;;;4968449;28;20168;-76
2022/10/30 10:00:41;;;;;;;8.93;2.38;;;16.80;99.90;;;;;;4967986;28;20039;-78
2022/10/30 10:03:37;;;;;;;4.95;2.13;;;17.00;99.90;;;;;;4968153;28;20031;-75
2022/10/30 10:06:09;;;;;;;8.82;1.80;;;17.10;99.90;;;;;;4967820;28;20026;-75
2022/10/30 10:08:40;;;;;;;13.40;1.90;;;17.30;99.90;;;;;;4969736;28;20119;-77
2022/10/30 10:11:15;;;;;;;20.88;2.33;;;17.40;99.90;;;;;;4968117;28;20026;-75
2022/10/30 10:13:44;;;;;;;4.43;1.45;;;17.60;99.90;;;;;;4969150;28;20507;-77
2022/10/30 10:16:13;;;;;;;2.65;1.05;;;17.80;99.90;;;;;;4969405;28;20070;-76
2022/10/30 10:18:49;;;;;;;2.85;1.35;;;18.10;99.90;;;;;;4969574;28;20705;-78
2022/10/30 10:21:22;;;;;;;3.78;2.00;;;18.30;99.90;;;;;;4967796;28;20480;-74
2022/10/30 10:23:51;;;;;;;8.43;2.75;;;18.40;99.90;;;;;;4969407;28;20057;-76
2022/10/30 10:27:04;;;;;;;2.63;1.33;;;18.60;99.90;;;;;;4968154;28;20117;-76
2022/10/30 10:30:03;;;;;;;4.30;1.85;;;18.90;99.90;;;;;;4923574;28;20059;-75
2022/10/30 10:32:35;;;;;;;2.78;1.85;;;19.00;99.90;;;;;;4969198;28;20027;-79
2022/10/30 10:35:21;;;;;;;12.10;1.98;;;19.20;99.90;;;;;;4967564;28;20107;-76
2022/10/30 10:38:05;;;;;;;10.02;2.22;;;19.40;99.90;;;;;;4967842;28;20043;-77
2022/10/30 10:40:50;;;;;;;12.43;3.03;;;19.50;99.90;;;;;;4967917;28;20022;-76
2022/10/30 10:43:40;;;;;;;3.85;1.48;;;19.60;99.90;;;;;;4967687;28;20034;-77
2022/10/30 10:46:30;;;;;;;2.60;1.42;;;19.70;99.90;;;;;;4969001;28;20074;-79
2022/10/30 10:49:11;;;;;;;3.58;1.50;;;19.90;99.90;;;;;;4974031;28;20117;-77
2022/10/30 10:51:41;;;;;;;3.85;1.90;;;19.90;99.90;;;;;;4986967;28;20025;-76
2022/10/30 10:54:26;;;;;;;5.15;1.98;;;20.10;99.90;;;;;;4988457;28;20037;-78
2022/10/30 10:56:53;;;;;;;2.85;1.50;;;20.20;99.90;;;;;;4984915;28;20034;-76
2022/10/30 10:59:22;;;;;;;2.17;1.55;;;20.50;99.90;;;;;;4988145;28;20499;-75
2022/10/30 11:02:25;;;;;;;3.67;1.70;;;20.70;99.90;;;;;;4988088;28;20475;-77
2022/10/30 11:04:56;;;;;;;1.38;1.27;;;20.60;99.90;;;;;;4989592;28;20057;-76
2022/10/30 11:07:46;;;;;;;8.50;3.15;;;20.60;99.90;;;;;;4988152;28;20129;-75
2022/10/30 11:10:15;;;;;;;1.70;1.23;;;20.80;99.90;;;;;;4993118;28;20076;-77
2022/10/30 11:12:41;;;;;;;3.25;1.85;;;20.90;99.90;;;;;;4988441;28;20553;-77
2022/10/30 11:15:36;;;;;;;2.75;1.48;;;21.10;99.90;;;;;;4992222;28;20100;-75
2022/10/30 11:18:04;;;;;;;6.95;2.13;;;21.30;99.90;;;;;;4974647;28;20074;-75
2022/10/30 11:20:38;;;;;;;3.27;1.60;;;21.40;99.90;;;;;;4987815;28;20026;-76
2022/10/30 11:23:40;;;;;;;4.78;1.55;;;21.50;99.90;;;;;;4990072;28;20085;-76
2022/10/30 11:26:24;;;;;;;3.72;1.90;;;21.50;99.90;;;;;;4987432;28;20015;-76
2022/10/30 11:29:02;;;;;;;5.15;1.40;;;21.50;99.90;;;;;;4988033;28;20333;-76
2022/10/30 11:31:39;;;;;;;1.52;1.13;;;21.60;99.90;;;;;;4988638;28;20116;-80
2022/10/30 11:34:17;;;;;;;9.35;2.35;;;21.70;99.90;;;;;;4994800;28;20030;-79
2022/10/30 11:36:48;;;;;;;2.33;1.85;;;21.70;99.90;;;;;;4997994;28;20094;-78
2022/10/30 11:39:53;;;;;;;4.97;2.50;;;21.70;99.90;;;;;;4993979;28;20353;-77
2022/10/30 11:42:18;;;;;;;4.93;2.50;;;21.00;99.90;;;;;;4998529;28;20053;-80
2022/10/30 11:44:48;;;;;;;3.67;2.30;;;21.60;99.90;;;;;;4998238;28;20338;-79
2022/10/30 11:47:16;;;;;;;8.35;1.70;;;21.80;99.90;;;;;;4977824;28;20062;-79
2022/10/30 11:49:50;;;;;;;7.75;1.63;;;21.90;99.90;;;;;;4988864;28;20238;-79
2022/10/30 11:52:20;;;;;;;1.77;1.30;;;21.90;99.90;;;;;;4976639;28;20035;-78
2022/10/30 11:54:53;;;;;;;8.23;1.70;;;22.00;99.90;;;;;;4984970;28;20069;-76
2022/10/30 11:57:37;;;;;;;3.30;2.00;;;21.90;99.90;;;;;;4989355;28;20219;-78
2022/10/30 12:00:22;;;;;;;1.50;1.02;;;21.90;99.90;;;;;;4989155;28;20031;-80
2022/10/30 12:02:51;;;;;;;5.78;1.80;;;21.90;99.90;;;;;;4987492;28;20033;-79
2022/10/30 12:06:05;;;;;;;5.10;1.38;;;22.00;99.90;;;;;;4993689;28;20021;-78
2022/10/30 12:08:31;;;;;;;4.20;1.48;;;22.00;99.90;;;;;;4943056;29;20331;-78
2022/10/30 12:11:00;;;;;;;4.65;1.83;;;21.80;99.90;;;;;;4989237;28;20123;-78
2022/10/30 12:13:27;;;;;;;8.18;1.58;;;21.80;99.90;;;;;;4997459;28;20037;-78
2022/10/30 12:16:15;;;;;;;7.70;2.25;;;21.90;99.90;;;;;;5003411;28;20169;-76
2022/10/30 12:18:51;;;;;;;4.60;1.20;;;21.80;99.90;;;;;;5003158;28;20049;-78
2022/10/30 12:21:19;;;;;;;2.63;1.55;;;22.00;99.90;;;;;;5002177;28;20154;-77
2022/10/30 12:23:53;;;;;;;6.70;1.75;;;22.10;99.90;;;;;;5002508;28;20106;-76
2022/10/30 12:26:21;;;;;;;2.85;2.13;;;22.20;99.90;;;;;;5001088;28;20030;-76
2022/10/30 12:28:59;;;;;;;3.35;1.80;;;22.30;99.90;;;;;;5001376;28;20018;-76
2022/10/30 12:31:33;;;;;;;10.32;2.35;;;22.20;99.90;;;;;;5002309;28;20022;-79
2022/10/30 12:34:11;;;;;;;3.03;1.50;;;22.70;99.90;;;;;;5002767;28;20026;-80
2022/10/30 12:36:46;;;;;;;2.25;1.52;;;23.30;99.90;;;;;;5003461;28;20034;-77
2022/10/30 12:39:28;;;;;;;3.20;2.00;;;23.50;98.60;;;;;;5003742;28;20200;-76
2022/10/30 12:42:15;;;;;;;8.55;1.70;;;23.70;97.20;;;;;;5000155;28;20025;-80
2022/10/30 12:45:08;;;;;;;8.43;1.70;;;24.30;94.40;;;;;;5003880;28;20290;-76
2022/10/30 12:47:39;;;;;;;9.13;1.98;;;25.10;85.20;;;;;;5003360;28;20023;-77
2022/10/30 12:50:28;;;;;;;4.40;1.40;;;25.10;85.90;;;;;;5003657;28;20430;-80
2022/10/30 12:53:06;;;;;;;7.65;1.55;;;25.90;77.50;;;;;;5002650;28;20082;-77
2022/10/30 12:55:40;;;;;;;5.90;0.75;;;27.40;71.90;;;;;;5004312;28;20030;-79
2022/10/30 12:58:32;;;;;;;5.95;1.17;;;29.00;63.30;;;;;;5003368;28;20334;-80
2022/10/30 13:01:03;;;;;;;2.72;1.20;;;30.10;59.10;;;;;;5002389;28;20041;-78
2022/10/30 13:03:36;;;;;;;3.50;1.42;;;30.60;55.50;;;;;;5004116;28;20214;-78
2022/10/30 13:06:12;;;;;;;3.58;1.38;;;31.10;53.70;;;;;;5003100;28;20089;-77
2022/10/30 13:08:55;;;;;;;3.35;1.35;;;31.50;53.50;;;;;;5002476;28;20061;-77
2022/10/30 13:11:46;;;;;;;13.77;1.80;;;32.30;49.50;;;;;;5001545;28;20366;-80